ANA33 RJAA-RKPC
Flight info
| Callsign | ANA33 |
|---|---|
| Flight time | N/A |
| Altitude | 38000 |
| Route | REDEK Y60 HABAR Y602 MARCO Y28 DGC A595 SAMDO Y677 TAMNA TAMNA2M |
| Aircraft | A321/M-SDE3FGHIRWY/LB1 |
Departure
| Time | N/A |
|---|---|
| Airport | Narita International Airport (RJAA) |
Arrival
| Time | 2025-09-08 07:52 |
|---|---|
| Airport | Jeju International Airport (RKPC) |
| Time | Latitude | Longitude | Altitude | Speed | Heading |
|---|---|---|---|---|---|
| 2025-09-08 06:13 | 35.10726 | 137.12748 | 37876 ft | 440 kts | 251° |
| 2025-09-08 06:15 | 35.03053 | 136.84558 | 38046 ft | 437 kts | 261° |
| 2025-09-08 06:17 | 34.96613 | 136.57265 | 37919 ft | 415 kts | 253° |
| 2025-09-08 06:19 | 34.88790 | 136.30562 | 36227 ft | 437 kts | 254° |
| 2025-09-08 06:21 | 34.82653 | 136.01841 | 36067 ft | 436 kts | 255° |
| 2025-09-08 06:22 | 34.75435 | 135.77705 | 36685 ft | 432 kts | 257° |
| 2025-09-08 06:25 | 34.67153 | 135.45856 | 36193 ft | 440 kts | 253° |
| 2025-09-08 06:26 | 34.62180 | 135.20473 | 35893 ft | 455 kts | 257° |
| 2025-09-08 06:29 | 34.55970 | 134.86265 | 35887 ft | 464 kts | 257° |
| 2025-09-08 06:30 | 34.51044 | 134.59529 | 35905 ft | 465 kts | 257° |
| 2025-09-08 06:33 | 34.44611 | 134.25101 | 35933 ft | 465 kts | 257° |
| 2025-09-08 06:34 | 34.39543 | 133.98382 | 35963 ft | 465 kts | 257° |
| 2025-09-08 06:37 | 34.32972 | 133.64187 | 35958 ft | 464 kts | 257° |
| 2025-09-08 06:38 | 34.28498 | 133.37436 | 35951 ft | 464 kts | 259° |
| 2025-09-08 06:41 | 34.22225 | 132.99149 | 35958 ft | 465 kts | 259° |
| 2025-09-08 06:43 | 34.17747 | 132.72332 | 35944 ft | 465 kts | 258° |
| 2025-09-08 06:45 | 34.12786 | 132.42959 | 35928 ft | 467 kts | 258° |
| 2025-09-08 06:47 | 34.07486 | 132.12251 | 35938 ft | 467 kts | 257° |
| 2025-09-08 06:49 | 34.00654 | 131.82085 | 35932 ft | 467 kts | 255° |
| 2025-09-08 06:51 | 33.93853 | 131.51867 | 35917 ft | 468 kts | 255° |
| 2025-09-08 06:53 | 33.86960 | 131.21673 | 35911 ft | 468 kts | 255° |
| 2025-09-08 06:55 | 33.79982 | 130.91504 | 35918 ft | 468 kts | 255° |
| 2025-09-08 06:57 | 33.72916 | 130.61374 | 35934 ft | 468 kts | 254° |
| 2025-09-08 06:58 | 33.68120 | 130.34814 | 35932 ft | 470 kts | 277° |
| 2025-09-08 07:01 | 33.72214 | 129.99828 | 35924 ft | 469 kts | 277° |
| 2025-09-08 07:02 | 33.74231 | 129.72719 | 35922 ft | 464 kts | 262° |
| 2025-09-08 07:05 | 33.70571 | 129.38732 | 35907 ft | 454 kts | 262° |
| 2025-09-08 07:06 | 33.67665 | 129.12388 | 35912 ft | 455 kts | 262° |
| 2025-09-08 07:09 | 33.63863 | 128.78632 | 35900 ft | 458 kts | 262° |
| 2025-09-08 07:11 | 33.60364 | 128.48257 | 35903 ft | 460 kts | 262° |
| 2025-09-08 07:13 | 33.56879 | 128.18003 | 31419 ft | 457 kts | 262° |
| 2025-09-08 07:15 | 33.53821 | 127.90793 | 26927 ft | 373 kts | 261° |
| 2025-09-08 07:16 | 33.51722 | 127.72606 | 24139 ft | 361 kts | 262° |
| 2025-09-08 07:17 | 33.51035 | 127.66679 | 23240 ft | 357 kts | 262° |
| 2025-09-08 07:17 | 33.50361 | 127.60861 | 22400 ft | 349 kts | 261° |
| 2025-09-08 07:18 | 33.49692 | 127.55171 | 21591 ft | 342 kts | 261° |
| 2025-09-08 07:18 | 33.49032 | 127.49569 | 20776 ft | 337 kts | 261° |
| 2025-09-08 07:19 | 33.48386 | 127.44036 | 19945 ft | 333 kts | 261° |
| 2025-09-08 07:19 | 33.47420 | 127.35866 | 18694 ft | 328 kts | 260° |
| 2025-09-08 07:20 | 33.47100 | 127.33167 | 18264 ft | 327 kts | 260° |
| 2025-09-08 07:20 | 33.46461 | 127.27798 | 17388 ft | 323 kts | 260° |
| 2025-09-08 07:21 | 33.45828 | 127.22513 | 16572 ft | 318 kts | 260° |
| 2025-09-08 07:21 | 33.45200 | 127.17291 | 15770 ft | 315 kts | 260° |
| 2025-09-08 07:22 | 33.44576 | 127.12136 | 14994 ft | 311 kts | 260° |
| 2025-09-08 07:22 | 33.43964 | 127.07037 | 14222 ft | 308 kts | 260° |
| 2025-09-08 07:23 | 33.43354 | 127.02012 | 13507 ft | 303 kts | 261° |
| 2025-09-08 07:23 | 33.43050 | 126.99523 | 13102 ft | 301 kts | 260° |
| 2025-09-08 07:24 | 33.42146 | 126.92155 | 11933 ft | 296 kts | 260° |
| 2025-09-08 07:24 | 33.41982 | 126.87272 | 11146 ft | 296 kts | 278° |
| 2025-09-08 07:25 | 33.43813 | 126.82639 | 10973 ft | 324 kts | 306° |
| 2025-09-08 07:25 | 33.46742 | 126.78505 | 10983 ft | 326 kts | 307° |
| 2025-09-08 07:26 | 33.49663 | 126.74362 | 10980 ft | 325 kts | 307° |
| 2025-09-08 07:26 | 33.51124 | 126.72287 | 10978 ft | 326 kts | 307° |
| 2025-09-08 07:26 | 33.54402 | 126.68544 | 10981 ft | 333 kts | 330° |
| 2025-09-08 07:27 | 33.59009 | 126.68016 | 10891 ft | 347 kts | 14° |
| 2025-09-08 07:28 | 33.64828 | 126.71416 | 10710 ft | 350 kts | 25° |
| 2025-09-08 07:28 | 33.69156 | 126.74056 | 10565 ft | 349 kts | 25° |
| 2025-09-08 07:29 | 33.73482 | 126.76690 | 10427 ft | 348 kts | 25° |
| 2025-09-08 07:29 | 33.77783 | 126.79319 | 10276 ft | 346 kts | 25° |
| 2025-09-08 07:30 | 33.82034 | 126.81926 | 10109 ft | 333 kts | 25° |
| 2025-09-08 07:30 | 33.84064 | 126.83172 | 9992 ft | 321 kts | 25° |
| 2025-09-08 07:30 | 33.87607 | 126.86018 | 9923 ft | 294 kts | 50° |
| 2025-09-08 07:31 | 33.89637 | 126.92586 | 9489 ft | 278 kts | 76° |
| 2025-09-08 07:32 | 33.90611 | 126.97069 | 9181 ft | 276 kts | 79° |
| 2025-09-08 07:32 | 33.90192 | 127.01478 | 8962 ft | 265 kts | 121° |
| 2025-09-08 07:33 | 33.87967 | 127.04621 | 8993 ft | 240 kts | 139° |
| 2025-09-08 07:33 | 33.85584 | 127.07418 | 8966 ft | 238 kts | 145° |
| 2025-09-08 07:33 | 33.84212 | 127.08503 | 8970 ft | 235 kts | 154° |
| 2025-09-08 07:34 | 33.81400 | 127.10496 | 8967 ft | 232 kts | 154° |
| 2025-09-08 07:34 | 33.78626 | 127.12442 | 8965 ft | 229 kts | 158° |
| 2025-09-08 07:35 | 33.75633 | 127.13626 | 8966 ft | 226 kts | 168° |
| 2025-09-08 07:36 | 33.71097 | 127.15210 | 8968 ft | 226 kts | 168° |
| 2025-09-08 07:36 | 33.66470 | 127.15643 | 8968 ft | 222 kts | 182° |
| 2025-09-08 07:37 | 33.64924 | 127.15701 | 8968 ft | 222 kts | 182° |
| 2025-09-08 07:37 | 33.61835 | 127.15755 | 8962 ft | 220 kts | 190° |
| 2025-09-08 07:37 | 33.60342 | 127.15401 | 8968 ft | 219 kts | 195° |
| 2025-09-08 07:38 | 33.57366 | 127.14613 | 8969 ft | 218 kts | 198° |
| 2025-09-08 07:38 | 33.55148 | 127.12393 | 8966 ft | 214 kts | 246° |
| 2025-09-08 07:39 | 33.56215 | 127.05598 | 8063 ft | 210 kts | 287° |
| 2025-09-08 07:40 | 33.56705 | 127.03957 | 7843 ft | 205 kts | 287° |
| 2025-09-08 07:40 | 33.57604 | 127.00942 | 7441 ft | 186 kts | 286° |
| 2025-09-08 07:41 | 33.58465 | 126.98037 | 7078 ft | 186 kts | 287° |
| 2025-09-08 07:41 | 33.59334 | 126.95103 | 6696 ft | 185 kts | 287° |
| 2025-09-08 07:42 | 33.60192 | 126.92213 | 6323 ft | 186 kts | 287° |
| 2025-09-08 07:42 | 33.60629 | 126.90735 | 6122 ft | 187 kts | 286° |
| 2025-09-08 07:42 | 33.61522 | 126.87716 | 5770 ft | 189 kts | 287° |
| 2025-09-08 07:43 | 33.62796 | 126.83427 | 5171 ft | 175 kts | 287° |
| 2025-09-08 07:44 | 33.63597 | 126.80717 | 4813 ft | 171 kts | 287° |
| 2025-09-08 07:44 | 33.64385 | 126.78002 | 4451 ft | 170 kts | 282° |
| 2025-09-08 07:45 | 33.64362 | 126.75247 | 4107 ft | 167 kts | 252° |
| 2025-09-08 07:45 | 33.63278 | 126.72792 | 3778 ft | 166 kts | 238° |
| 2025-09-08 07:46 | 33.62073 | 126.70437 | 3442 ft | 165 kts | 238° |
| 2025-09-08 07:46 | 33.61471 | 126.69260 | 3283 ft | 165 kts | 238° |
| 2025-09-08 07:46 | 33.60286 | 126.66940 | 2976 ft | 160 kts | 237° |
| 2025-09-08 07:47 | 33.58647 | 126.63734 | 2504 ft | 142 kts | 237° |
| 2025-09-08 07:48 | 33.57621 | 126.61714 | 2280 ft | 142 kts | 237° |
| 2025-09-08 07:48 | 33.56590 | 126.59698 | 1928 ft | 141 kts | 237° |
| 2025-09-08 07:49 | 33.55561 | 126.57700 | 1673 ft | 141 kts | 238° |
| 2025-09-08 07:49 | 33.55041 | 126.56693 | 1395 ft | 144 kts | 237° |
| 2025-09-08 07:49 | 33.53981 | 126.54619 | 1071 ft | 148 kts | 238° |
| 2025-09-08 07:50 | 33.52899 | 126.52523 | 619 ft | 147 kts | 240° |
| 2025-09-08 07:50 | 33.51838 | 126.50443 | 281 ft | 146 kts | 240° |
| 2025-09-08 07:51 | 33.50597 | 126.48047 | 92 ft | 49 kts | 223° |
| 2025-09-08 07:52 | 33.50392 | 126.47993 | 95 ft | 10 kts | 76° |
| 2025-09-08 07:52 | 33.50393 | 126.47997 | 93 ft | 0 kts | 75° |
| 2025-09-08 07:53 | 33.50394 | 126.48003 | 93 ft | 3 kts | 74° |
| 2025-09-08 07:53 | 33.50396 | 126.48010 | 93 ft | 1 kts | 72° |
| 2025-09-08 07:54 | 33.50422 | 126.48066 | 94 ft | 4 kts | 56° |
| 2025-09-08 07:54 | 33.50447 | 126.48107 | 92 ft | 7 kts | 56° |
| 2025-09-08 07:55 | 33.50500 | 126.48216 | 93 ft | 0 kts | 58° |
| 2025-09-08 07:56 | 33.50544 | 126.48298 | 93 ft | 0 kts | 57° |
| 2025-09-08 07:57 | 33.50550 | 126.48310 | 91 ft | 7 kts | 57° |
| 2025-09-08 07:57 | 33.50594 | 126.48401 | 93 ft | 8 kts | 60° |
| 2025-09-08 07:58 | 33.50550 | 126.48574 | 92 ft | 20 kts | 133° |
| 2025-09-08 07:58 | 33.50611 | 126.48783 | 90 ft | 19 kts | 62° |
| 2025-09-08 07:58 | 33.50658 | 126.48875 | 92 ft | 0 kts | 51° |
| 2025-09-08 07:59 | 33.50731 | 126.49080 | 93 ft | 9 kts | 141° |
| 2025-09-08 08:00 | 33.50671 | 126.49126 | 92 ft | 0 kts | 148° |